Time;durP1;ratioP1;P1;durP2;ratioP2;P2;SDS_P1;SDS_P2;PMS_P1;PMS_P2;Temp;Humidity;BMP_temperature;BMP_pressure;BME280_temperature;BME280_humidity;BME280_pressure;Samples;Min_cycle;Max_cycle;Signal;HPM_P1;HPM_P2
2023/12/13 00:02:48;;;;;;;;;;;7.90;63.00;;;6.50;64.63;99812.59;12248303;19;19918;-84
2023/12/13 00:06:50;;;;;;;;;;;7.90;63.00;;;6.43;64.47;99788.75;12247183;19;20405;-84
2023/12/13 00:10:57;;;;;;;;;;;8.00;62.80;;;6.30;64.54;99761.81;12245420;19;20352;-84
2023/12/13 00:14:59;;;;;;;;;;;8.00;62.90;;;6.51;64.59;99801.31;12248721;19;19979;-84
2023/12/13 00:19:01;;;;;;;;;;;8.30;63.00;;;6.51;64.72;99809.09;12248614;19;19927;-85
2023/12/13 00:23:03;;;;;;;;;;;8.10;62.90;;;6.59;64.71;99816.47;12247723;19;20318;-84
2023/12/13 00:27:05;;;;;;;;;;;8.00;63.00;;;6.57;64.58;99815.72;12246628;19;20520;-85
2023/12/13 00:31:08;;;;;;;;;;;8.10;63.20;;;6.64;64.57;99807.53;12243669;19;20261;-84
2023/12/13 00:35:10;;;;;;;;;;;8.10;63.90;;;6.65;64.86;99800.56;12247074;19;20350;-84
2023/12/13 00:39:11;;;;;;;;;;;8.10;63.40;;;6.63;64.69;99792.03;12246107;19;19978;-84
2023/12/13 00:43:13;;;;;;;;;;;8.10;63.10;;;6.68;64.71;99799.56;12253743;19;19915;-84
2023/12/13 00:47:15;;;;;;;;;;;8.10;63.30;;;6.67;64.63;99787.50;12258415;19;19914;-84
2023/12/13 00:51:21;;;;;;;;;;;8.10;63.00;;;6.61;64.62;99771.34;12254953;19;19974;-84
2023/12/13 00:55:22;;;;;;;;;;;8.20;62.90;;;6.70;64.80;99774.34;12259750;19;19933;-84
2023/12/13 00:59:24;;;;;;;;;;;8.20;63.10;;;6.75;64.62;99772.34;12256814;19;20288;-84
2023/12/13 01:03:25;;;;;;;;;;;8.30;62.90;;;6.71;64.80;99765.69;12259541;19;19911;-84
2023/12/13 01:07:27;;;;;;;;;;;8.20;63.00;;;6.63;64.70;99742.75;12258857;19;20030;-84
2023/12/13 01:11:28;;;;;;;;;;;8.20;63.40;;;6.67;64.84;99739.06;12253400;19;19948;-84
2023/12/13 01:15:30;;;;;;;;;;;8.30;63.50;;;6.60;64.68;99722.16;12258444;19;19919;-84
2023/12/13 01:19:31;;;;;;;;;;;8.30;63.50;;;6.81;64.74;99753.88;12252990;19;19923;-84
2023/12/13 01:23:33;;;;;;;;;;;8.30;63.30;;;6.75;64.85;99738.63;12257531;19;19928;-84
2023/12/13 01:27:34;;;;;;;;;;;8.30;63.30;;;6.81;64.82;99744.34;12257150;19;20351;-84
2023/12/13 01:31:36;;;;;;;;;;;8.30;63.20;;;6.86;64.75;99746.69;12253232;19;19935;-84
2023/12/13 01:35:38;;;;;;;;;;;8.50;63.50;;;6.61;64.86;99710.84;12257562;19;19911;-84
2023/12/13 01:39:40;;;;;;;;;;;8.40;63.50;;;6.91;64.91;99743.81;12255998;19;20003;-85
2023/12/13 01:43:42;;;;;;;;;;;8.40;63.80;;;6.93;64.84;99744.56;12256791;19;20006;-84
2023/12/13 01:47:44;;;;;;;;;;;8.40;63.60;;;6.89;64.79;99733.53;12257467;19;19994;-84
2023/12/13 01:51:46;;;;;;;;;;;8.40;63.70;;;6.90;64.74;99732.59;12252130;19;19922;-84
2023/12/13 01:55:47;;;;;;;;;;;8.40;63.50;;;6.88;64.74;99716.25;12251459;19;20726;-84
2023/12/13 02:00:06;;;;;;;;;;;8.40;63.50;;;7.02;64.86;99738.84;12253745;19;19931;-84
2023/12/13 02:04:13;;;;;;;;;;;8.50;63.70;;;7.01;64.63;99734.59;12254914;19;19919;-85
2023/12/13 02:08:15;;;;;;;;;;;8.50;63.70;;;6.99;64.87;99719.09;12253307;19;19950;-85
2023/12/13 02:12:16;;;;;;;;;;;8.50;63.30;;;6.96;64.77;99708.88;12249351;19;19922;-84
2023/12/13 02:16:18;;;;;;;;;;;8.50;63.20;;;6.91;64.81;99695.31;12252994;19;19923;-84
2023/12/13 02:20:20;;;;;;;;;;;8.60;63.40;;;7.07;64.99;99711.72;12252221;19;19915;-85
2023/12/13 02:24:23;;;;;;;;;;;8.90;64.00;;;6.99;64.71;99695.72;12255089;19;19911;-84
2023/12/13 02:28:26;;;;;;;;;;;8.80;63.80;;;7.08;64.77;99697.00;12253675;19;19914;-84
2023/12/13 02:32:27;;;;;;;;;;;8.60;63.70;;;7.03;64.92;99681.66;12240644;19;20277;-84
2023/12/13 02:36:29;;;;;;;;;;;8.60;63.70;;;6.98;64.65;99665.50;12254445;19;19918;-84
2023/12/13 02:40:30;;;;;;;;;;;8.60;63.50;;;7.13;64.88;99679.38;12251286;19;19907;-84
2023/12/13 02:44:32;;;;;;;;;;;8.60;64.00;;;6.93;64.90;99641.59;12252291;19;19911;-85
2023/12/13 02:48:34;;;;;;;;;;;8.70;63.90;;;7.19;64.89;99678.19;12253272;19;19914;-84
2023/12/13 02:52:35;;;;;;;;;;;8.70;63.80;;;7.13;64.82;99673.34;12250611;19;19938;-85
2023/12/13 02:56:37;;;;;;;;;;;8.60;63.60;;;7.20;64.71;99678.09;12248331;19;20253;-84
2023/12/13 03:00:39;;;;;;;;;;;8.60;63.60;;;7.20;64.66;99665.09;12248761;19;20230;-84
2023/12/13 03:04:40;;;;;;;;;;;8.70;63.40;;;6.99;64.78;99627.41;12250323;19;19919;-85
2023/12/13 03:12:46;;;;;;;;;;;8.70;63.40;;;7.14;64.79;99643.88;12249646;19;19911;-84
2023/12/13 03:16:48;;;;;;;;;;;8.70;63.50;;;7.17;64.85;99648.88;12250734;19;19926;-84
2023/12/13 03:20:50;;;;;;;;;;;8.70;63.60;;;7.24;64.75;99645.00;12248561;19;19951;-85
2023/12/13 03:24:51;;;;;;;;;;;8.80;63.40;;;7.23;64.90;99643.31;12249120;19;20271;-84
2023/12/13 03:28:53;;;;;;;;;;;8.80;63.60;;;7.28;64.81;99649.91;12250396;19;19923;-84
2023/12/13 03:32:54;;;;;;;;;;;8.90;63.60;;;7.35;64.86;99653.00;12246389;19;19918;-84
2023/12/13 03:36:56;;;;;;;;;;;8.80;63.50;;;7.34;64.86;99647.88;12251160;19;19907;-84
2023/12/13 03:40:58;;;;;;;;;;;9.00;63.60;;;7.32;64.90;99638.44;12248188;19;20253;-84
2023/12/13 03:44:59;;;;;;;;;;;8.80;63.40;;;7.36;64.84;99656.44;12249522;19;20358;-85
2023/12/13 03:49:01;;;;;;;;;;;8.90;63.50;;;7.31;64.88;99633.31;12247918;19;19919;-84
2023/12/13 03:53:02;;;;;;;;;;;9.00;63.70;;;7.36;64.62;99631.28;12247591;19;19933;-84
2023/12/13 03:57:04;;;;;;;;;;;8.90;63.50;;;7.23;64.79;99594.81;12245157;19;19923;-84
2023/12/13 04:01:07;;;;;;;;;;;9.10;63.80;;;7.42;64.91;99619.69;12246346;19;19927;-85
2023/12/13 04:05:09;;;;;;;;;;;8.90;63.50;;;7.47;65.00;99615.06;12246525;19;19919;-84
2023/12/13 04:09:11;;;;;;;;;;;8.90;63.50;;;7.40;64.68;99599.03;12247164;19;19922;-84
2023/12/13 04:13:12;;;;;;;;;;;8.90;63.40;;;7.51;64.86;99616.56;12245181;19;20355;-85
2023/12/13 04:17:14;;;;;;;;;;;8.90;63.30;;;7.47;64.68;99600.31;12246960;19;19923;-84
2023/12/13 04:21:15;;;;;;;;;;;9.10;63.60;;;7.41;64.91;99582.50;12242394;19;19937;-84
2023/12/13 04:25:17;;;;;;;;;;;8.90;63.50;;;7.43;64.64;99593.63;12247680;19;19928;-84
2023/12/13 04:29:19;;;;;;;;;;;8.90;63.40;;;7.43;64.63;99582.44;12246367;19;20330;-84
2023/12/13 04:33:20;;;;;;;;;;;9.00;63.40;;;7.42;64.92;99586.75;12247134;19;20253;-84
2023/12/13 04:37:22;;;;;;;;;;;9.00;63.50;;;7.39;64.80;99576.56;12245527;19;20329;-84
2023/12/13 04:41:23;;;;;;;;;;;8.90;63.40;;;7.40;64.96;99567.84;12242402;19;19974;-84
2023/12/13 04:45:25;;;;;;;;;;;9.00;64.10;;;7.54;64.84;99591.22;12246211;19;19915;-84
2023/12/13 04:49:26;;;;;;;;;;;9.20;63.80;;;7.55;65.07;99581.66;12245366;19;20243;-84
2023/12/13 04:53:28;;;;;;;;;;;9.00;63.70;;;7.56;64.92;99582.50;12245753;19;19922;-84
2023/12/13 04:57:29;;;;;;;;;;;9.00;63.70;;;7.46;64.89;99564.88;12246476;19;19971;-84
2023/12/13 05:01:30;;;;;;;;;;;9.00;63.90;;;7.61;64.94;99590.84;12243397;19;19911;-84
2023/12/13 05:05:32;;;;;;;;;;;9.00;63.80;;;7.52;64.96;99559.31;12245826;19;19916;-84
2023/12/13 05:09:33;;;;;;;;;;;9.00;63.90;;;7.19;64.76;99507.66;12245034;19;19911;-84
2023/12/13 05:13:35;;;;;;;;;;;9.10;63.90;;;7.58;64.83;99562.44;12244265;19;19939;-84
2023/12/13 05:17:36;;;;;;;;;;;9.00;63.70;;;7.65;64.90;99564.59;12245442;19;19919;-84
2023/12/13 05:21:38;;;;;;;;;;;9.10;63.80;;;7.61;64.94;99549.28;12242191;19;19962;-84
2023/12/13 05:25:40;;;;;;;;;;;9.10;63.90;;;7.58;64.92;99546.88;12245750;19;20265;-84
2023/12/13 05:29:43;;;;;;;;;;;9.10;63.70;;;7.66;64.96;99552.41;12250921;19;19920;-84
2023/12/13 05:33:45;;;;;;;;;;;9.10;63.70;;;7.70;64.86;99559.94;12248901;19;19941;-85
2023/12/13 05:37:46;;;;;;;;;;;9.20;63.70;;;7.60;64.77;99545.84;12255143;19;19915;-85
2023/12/13 05:41:48;;;;;;;;;;;9.20;63.70;;;7.69;64.83;99554.81;12250377;19;19911;-84
2023/12/13 05:45:50;;;;;;;;;;;9.20;63.80;;;7.72;64.96;99562.44;12256847;19;19923;-85
2023/12/13 05:49:51;;;;;;;;;;;9.20;63.70;;;7.70;64.82;99549.56;12258667;19;20350;-85
2023/12/13 05:53:53;;;;;;;;;;;9.30;63.70;;;7.81;64.80;99571.44;12258031;19;19918;-85
2023/12/13 05:57:55;;;;;;;;;;;9.30;63.80;;;7.78;64.88;99562.06;12259444;19;20318;-85
2023/12/13 06:01:56;;;;;;;;;;;9.30;63.70;;;7.72;64.97;99546.84;12253356;19;20361;-84
2023/12/13 06:05:58;;;;;;;;;;;9.30;63.60;;;7.81;64.96;99569.66;12254366;19;20259;-84
2023/12/13 06:09:59;;;;;;;;;;;9.30;63.60;;;7.73;65.01;99546.75;12251979;19;20349;-84
2023/12/13 06:14:01;;;;;;;;;;;9.30;63.70;;;7.79;64.94;99561.13;12252834;19;20344;-84
2023/12/13 06:18:02;;;;;;;;;;;9.30;63.80;;;7.58;65.11;99533.88;12253545;19;19919;-84
2023/12/13 06:22:04;;;;;;;;;;;9.30;64.00;;;7.71;64.93;99546.00;12247872;19;19906;-84
2023/12/13 06:26:06;;;;;;;;;;;9.20;64.20;;;7.82;65.03;99553.13;12252570;19;19915;-84
2023/12/13 06:30:08;;;;;;;;;;;9.30;64.40;;;7.84;65.11;99559.06;12248204;19;20019;-84
2023/12/13 06:34:10;;;;;;;;;;;9.30;65.10;;;7.86;64.94;99565.03;12251430;19;20377;-85
2023/12/13 06:38:12;;;;;;;;;;;9.30;64.20;;;7.87;65.03;99556.28;12251056;19;20267;-85
2023/12/13 06:42:13;;;;;;;;;;;9.30;64.30;;;7.95;65.06;99555.81;12247479;19;19975;-84
2023/12/13 06:46:15;;;;;;;;;;;9.40;64.30;;;7.91;65.00;99560.38;12248729;19;20280;-85
2023/12/13 06:50:16;;;;;;;;;;;9.30;64.10;;;7.96;65.09;99563.50;12248228;19;19918;-84
2023/12/13 06:54:18;;;;;;;;;;;9.40;64.10;;;7.93;65.10;99560.25;12248489;19;19919;-84
2023/12/13 06:58:19;;;;;;;;;;;9.40;64.10;;;7.97;64.87;99567.78;12250739;19;19942;-84
2023/12/13 07:02:21;;;;;;;;;;;9.60;64.30;;;7.93;65.12;99545.50;12245975;19;19922;-84
2023/12/13 07:06:22;;;;;;;;;;;9.50;64.00;;;7.96;64.87;99549.66;12248701;19;19919;-84
2023/12/13 07:10:26;;;;;;;;;;;9.40;63.90;;;7.82;65.14;99527.16;12246692;19;19919;-84
2023/12/13 07:14:28;;;;;;;;;;;9.40;64.00;;;7.94;65.16;99552.38;12248458;19;19907;-84
2023/12/13 07:18:29;;;;;;;;;;;9.40;64.00;;;7.97;65.12;99561.75;12247918;19;19910;-84
2023/12/13 07:22:31;;;;;;;;;;;9.50;64.20;;;8.01;65.11;99571.00;12243831;19;19915;-84
2023/12/13 07:26:33;;;;;;;;;;;9.50;64.10;;;8.02;65.04;99569.22;12249846;19;19914;-84
2023/12/13 07:30:34;;;;;;;;;;;9.70;64.40;;;7.79;64.92;99534.31;12245186;19;19954;-83
2023/12/13 07:34:36;;;;;;;;;;;9.50;64.20;;;7.94;65.13;99556.75;12247460;19;19930;-84
2023/12/13 07:38:38;;;;;;;;;;;9.50;64.10;;;8.03;65.07;99560.53;12248249;19;20349;-84
2023/12/13 07:42:41;;;;;;;;;;;9.50;64.10;;;7.94;64.90;99547.19;12247210;19;20527;-84
2023/12/13 07:46:43;;;;;;;;;;;9.50;64.00;;;8.08;65.13;99576.66;12246994;19;19929;-84
2023/12/13 07:50:44;;;;;;;;;;;9.50;64.00;;;7.95;64.92;99556.63;12240833;19;19914;-84
2023/12/13 07:54:48;;;;;;;;;;;9.50;64.10;;;8.08;64.97;99568.88;12242129;19;19959;-84
2023/12/13 07:58:49;;;;;;;;;;;9.50;64.10;;;7.93;65.08;99553.28;12248576;19;20378;-86
2023/12/13 08:02:51;;;;;;;;;;;9.50;64.00;;;8.08;65.06;99572.28;12244344;19;19918;-85
2023/12/13 08:06:55;;;;;;;;;;;9.50;64.00;;;8.08;64.95;99574.91;12248893;19;20318;-85
2023/12/13 08:10:57;;;;;;;;;;;9.50;64.10;;;8.07;64.94;99567.19;12243918;19;19914;-86
2023/12/13 08:14:59;;;;;;;;;;;9.50;64.20;;;8.10;64.95;99574.78;12248490;19;19923;-85
2023/12/13 08:19:01;;;;;;;;;;;9.50;64.20;;;8.02;65.13;99556.22;12245586;19;19918;-86
2023/12/13 08:23:04;;;;;;;;;;;9.60;64.30;;;8.14;65.24;99578.88;12245309;19;19942;-85
2023/12/13 08:27:06;;;;;;;;;;;9.60;64.40;;;8.14;64.99;99584.06;12245275;19;20333;-85
2023/12/13 08:31:10;;;;;;;;;;;9.50;65.00;;;8.18;65.20;99588.13;12244012;19;19922;-85
2023/12/13 08:35:11;;;;;;;;;;;9.60;64.40;;;8.09;65.06;99573.13;12244075;19;19919;-87
2023/12/13 08:39:13;;;;;;;;;;;9.60;64.40;;;8.11;65.01;99574.69;12244651;19;20336;-84
2023/12/13 08:43:14;;;;;;;;;;;9.60;64.30;;;8.09;64.99;99571.34;12244289;19;20000;-85
2023/12/13 08:47:16;;;;;;;;;;;9.60;64.60;;;8.24;65.10;99597.34;12245919;19;19919;-85
2023/12/13 08:51:17;;;;;;;;;;;9.60;64.50;;;7.97;65.12;99548.75;12240741;19;19925;-84
2023/12/13 08:55:18;;;;;;;;;;;9.60;64.40;;;8.21;64.98;99590.56;12246443;19;19915;-84
2023/12/13 08:59:20;;;;;;;;;;;9.70;64.40;;;8.18;65.01;99585.53;12242470;19;20242;-85
2023/12/13 09:03:21;;;;;;;;;;;9.70;64.30;;;8.18;65.06;99582.94;12249101;19;20637;-84
2023/12/13 09:07:23;;;;;;;;;;;9.70;65.20;;;8.26;64.98;99598.06;12258755;19;20258;-84
2023/12/13 09:11:25;;;;;;;;;;;9.90;64.60;;;8.16;65.03;99580.44;12253808;19;19927;-84
2023/12/13 09:15:26;;;;;;;;;;;9.70;64.20;;;8.23;65.21;99588.66;12256711;19;19933;-83
2023/12/13 09:19:28;;;;;;;;;;;9.70;64.50;;;8.19;65.08;99587.22;12256014;19;19919;-85
2023/12/13 09:23:31;;;;;;;;;;;9.70;64.70;;;8.28;65.20;99599.63;12255027;19;19910;-85
2023/12/13 09:27:33;;;;;;;;;;;9.70;64.80;;;8.27;64.97;99600.56;12250366;19;19978;-84
2023/12/13 09:31:35;;;;;;;;;;;9.70;64.70;;;8.27;65.26;99605.75;12250443;19;19953;-84
2023/12/13 09:35:38;;;;;;;;;;;9.70;64.70;;;8.28;65.08;99606.59;12253699;19;19975;-85
2023/12/13 09:39:39;;;;;;;;;;;9.70;64.60;;;8.27;65.27;99602.34;12252164;19;19921;-83
2023/12/13 09:43:42;;;;;;;;;;;9.70;64.70;;;8.29;65.26;99592.66;12253995;19;19915;-84
2023/12/13 09:47:44;;;;;;;;;;;9.70;64.70;;;8.12;65.14;99567.72;12254617;19;19927;-84
2023/12/13 09:51:49;;;;;;;;;;;9.80;64.90;;;8.31;65.26;99602.03;12249937;19;19991;-84
2023/12/13 09:55:52;;;;;;;;;;;9.80;64.70;;;8.31;65.29;99596.00;12254669;19;20361;-84
2023/12/13 09:59:54;;;;;;;;;;;9.80;64.90;;;8.19;65.19;99569.00;12251048;19;19911;-84
2023/12/13 10:03:55;;;;;;;;;;;9.80;65.20;;;8.31;65.14;99589.00;12254367;19;19919;-84
2023/12/13 10:08:01;;;;;;;;;;;9.80;65.40;;;8.13;65.14;99552.03;12251184;19;19975;-84
2023/12/13 10:12:12;;;;;;;;;;;9.80;65.00;;;8.42;65.25;99590.97;12246167;19;19919;-86
2023/12/13 10:16:14;;;;;;;;;;;9.80;65.00;;;8.36;65.05;99578.31;12250730;19;20413;-85
2023/12/13 10:20:16;;;;;;;;;;;9.80;65.30;;;8.30;65.12;99573.53;12251845;19;20262;-85
2023/12/13 10:24:20;;;;;;;;;;;9.80;65.20;;;8.38;65.04;99592.06;12252480;19;19923;-85
2023/12/13 10:28:23;;;;;;;;;;;9.80;65.00;;;8.34;65.11;99570.59;12250729;19;19915;-85
2023/12/13 10:32:24;;;;;;;;;;;9.80;65.10;;;8.40;65.27;99585.88;12247285;19;19930;-85
2023/12/13 10:36:27;;;;;;;;;;;9.80;65.30;;;8.35;65.24;99571.47;12250172;19;19990;-85
2023/12/13 10:40:28;;;;;;;;;;;9.80;64.90;;;8.46;65.34;99579.44;12247002;19;20334;-85
2023/12/13 10:44:31;;;;;;;;;;;9.90;65.20;;;8.23;65.22;99536.66;12250881;19;20033;-85
2023/12/13 10:48:37;;;;;;;;;;;9.90;65.20;;;8.45;65.37;99577.75;12249533;19;19932;-85
2023/12/13 10:52:39;;;;;;;;;;;9.90;65.50;;;8.51;65.22;99572.16;12246175;19;19929;-85
2023/12/13 10:56:42;;;;;;;;;;;9.90;65.30;;;8.24;65.22;99530.53;12252764;19;19919;-85
2023/12/13 11:00:44;;;;;;;;;;;9.90;65.00;;;8.44;65.20;99570.06;12248377;19;19911;-85
2023/12/13 11:04:46;;;;;;;;;;;9.90;65.20;;;8.47;65.19;99568.09;12249737;19;19940;-85
2023/12/13 11:08:47;;;;;;;;;;;9.90;65.20;;;8.50;65.13;99570.47;12248993;19;19915;-86
2023/12/13 11:12:50;;;;;;;;;;;9.90;65.20;;;8.33;65.06;99545.53;12246286;19;19918;-86
2023/12/13 11:16:51;;;;;;;;;;;9.90;65.30;;;8.51;65.21;99571.34;12251855;19;19915;-86
2023/12/13 11:20:58;;;;;;;;;;;10.00;65.20;;;8.56;65.21;99584.84;12247946;19;19921;-85
2023/12/13 11:25:03;;;;;;;;;;;10.00;65.00;;;8.55;65.04;99591.84;12250468;19;19915;-85
2023/12/13 11:29:13;;;;;;;;;;;10.00;64.90;;;8.46;65.22;99576.84;12248397;19;20337;-85
2023/12/13 11:33:15;;;;;;;;;;;9.90;64.60;;;8.54;65.18;99597.16;12244343;19;19948;-85
2023/12/13 11:37:16;;;;;;;;;;;10.00;64.60;;;8.55;65.30;99598.81;12249745;19;19932;-85
2023/12/13 11:41:18;;;;;;;;;;;10.00;64.80;;;8.56;65.21;99597.88;12246091;19;19919;-87
2023/12/13 11:45:20;;;;;;;;;;;10.00;64.80;;;8.54;65.12;99578.94;12247831;19;19932;-86
2023/12/13 11:49:23;;;;;;;;;;;10.00;64.80;;;8.49;65.24;99579.22;12247429;19;20859;-86
2023/12/13 11:53:24;;;;;;;;;;;10.00;64.80;;;8.57;65.17;99581.34;12246824;19;19918;-86
2023/12/13 11:57:25;;;;;;;;;;;10.00;65.10;;;8.54;65.23;99581.53;12246620;19;19961;-86
2023/12/13 12:01:27;;;;;;;;;;;10.00;64.90;;;8.59;65.45;99589.88;12244204;19;19918;-85
2023/12/13 12:05:28;;;;;;;;;;;10.00;64.90;;;8.46;65.29;99563.00;12245995;19;19911;-85
2023/12/13 12:09:30;;;;;;;;;;;10.00;64.90;;;8.59;65.19;99587.28;12245467;19;20024;-85
2023/12/13 12:13:32;;;;;;;;;;;10.10;65.00;;;8.66;65.35;99590.31;12246773;19;20298;-85
2023/12/13 12:17:33;;;;;;;;;;;10.10;65.60;;;8.75;65.16;99600.97;12245144;19;19944;-84
2023/12/13 12:21:35;;;;;;;;;;;10.10;64.80;;;8.71;65.15;99599.47;12243997;19;19964;-85
2023/12/13 12:25:39;;;;;;;;;;;10.10;64.80;;;8.73;65.16;99605.44;12249984;19;19918;-86
2023/12/13 12:29:41;;;;;;;;;;;10.20;64.90;;;8.75;65.25;99606.16;12251516;19;19915;-85
2023/12/13 12:33:42;;;;;;;;;;;10.20;65.00;;;8.67;65.27;99587.63;12246109;19;19967;-84
2023/12/13 12:37:45;;;;;;;;;;;10.20;65.00;;;8.58;65.14;99583.81;12255314;19;19915;-84
2023/12/13 12:41:46;;;;;;;;;;;10.20;65.10;;;8.78;65.13;99610.34;12264920;19;19929;-84
2023/12/13 12:45:49;;;;;;;;;;;10.40;65.10;;;8.81;65.30;99615.34;12270760;19;19924;-84
2023/12/13 12:49:52;;;;;;;;;;;10.20;64.90;;;8.84;65.28;99609.94;12267765;19;19923;-85
2023/12/13 12:53:54;;;;;;;;;;;10.20;65.00;;;8.79;65.15;99601.59;12269332;19;19911;-85
2023/12/13 12:57:55;;;;;;;;;;;10.20;65.00;;;8.83;65.14;99596.09;12267685;19;19940;-84
2023/12/13 13:01:57;;;;;;;;;;;10.20;65.00;;;8.81;65.10;99602.31;12267655;19;19914;-84
2023/12/13 13:05:58;;;;;;;;;;;10.20;65.00;;;8.69;65.16;99596.13;12267530;19;19914;-85
2023/12/13 13:10:00;;;;;;;;;;;10.20;65.00;;;8.79;65.16;99612.81;12269369;19;19922;-85
2023/12/13 13:14:02;;;;;;;;;;;10.20;64.90;;;8.84;65.12;99623.78;12267031;19;19910;-86
2023/12/13 13:18:04;;;;;;;;;;;10.20;64.90;;;8.75;65.11;99613.13;12269779;19;20325;-87
2023/12/13 13:22:05;;;;;;;;;;;10.20;65.60;;;8.79;65.17;99614.59;12265560;19;19945;-85
2023/12/13 13:26:09;;;;;;;;;;;10.20;64.80;;;8.74;65.28;99614.88;12268033;19;20365;-85
2023/12/13 13:30:15;;;;;;;;;;;10.20;64.80;;;8.76;65.22;99609.59;12261658;19;20227;-86
2023/12/13 13:34:16;;;;;;;;;;;10.20;64.80;;;8.55;65.13;99572.78;12267307;19;19929;-86
2023/12/13 13:38:18;;;;;;;;;;;10.20;64.70;;;8.61;65.13;99582.78;12268513;19;20244;-86
2023/12/13 13:42:21;;;;;;;;;;;10.30;64.80;;;8.86;65.36;99637.53;12260916;19;19915;-86
2023/12/13 13:46:22;;;;;;;;;;;10.30;64.80;;;8.87;65.10;99643.56;12265940;19;19921;-86
2023/12/13 13:50:24;;;;;;;;;;;10.30;64.80;;;8.90;65.17;99639.94;12256963;19;19925;-85
2023/12/13 13:54:26;;;;;;;;;;;10.30;64.90;;;8.77;65.21;99624.25;12253303;19;19994;-86
2023/12/13 13:58:27;;;;;;;;;;;10.30;64.90;;;8.93;65.28;99655.34;12253720;19;19979;-85
2023/12/13 14:02:33;;;;;;;;;;;10.30;64.90;;;8.87;65.21;99643.56;12248720;19;19911;-86
2023/12/13 14:06:34;;;;;;;;;;;10.30;64.80;;;8.88;65.06;99644.38;12256136;19;19964;-86
2023/12/13 14:10:36;;;;;;;;;;;10.30;64.80;;;8.80;65.21;99637.06;12253090;19;19946;-85
2023/12/13 14:14:38;;;;;;;;;;;10.30;64.70;;;8.82;65.13;99653.44;12254449;19;19923;-85
2023/12/13 14:18:39;;;;;;;;;;;10.30;64.80;;;8.93;65.32;99665.75;12254431;19;19918;-85
2023/12/13 14:22:41;;;;;;;;;;;10.30;64.80;;;8.85;65.38;99653.22;12255134;19;19919;-85
2023/12/13 14:26:43;;;;;;;;;;;10.40;64.80;;;8.76;65.08;99643.44;12252771;19;19918;-85
2023/12/13 14:30:45;;;;;;;;;;;10.30;64.80;;;8.93;65.18;99678.78;12251976;19;19935;-85
2023/12/13 14:34:46;;;;;;;;;;;10.30;64.80;;;8.89;65.30;99667.72;12253835;19;19918;-85
2023/12/13 14:38:48;;;;;;;;;;;10.30;64.90;;;8.86;65.29;99662.72;12254863;19;19911;-85
2023/12/13 14:42:49;;;;;;;;;;;10.30;64.80;;;8.73;65.05;99647.06;12253163;19;19922;-85
2023/12/13 14:46:51;;;;;;;;;;;10.50;64.90;;;8.88;65.23;99670.41;12252660;19;20332;-85
2023/12/13 14:50:53;;;;;;;;;;;10.50;65.00;;;8.67;65.18;99644.88;12248270;19;19918;-85
2023/12/13 14:54:54;;;;;;;;;;;10.30;64.80;;;8.88;65.24;99678.22;12251209;19;20253;-85
2023/12/13 14:58:56;;;;;;;;;;;10.30;64.80;;;8.76;65.02;99659.88;12251859;19;19924;-85
2023/12/13 15:02:58;;;;;;;;;;;10.30;64.60;;;8.64;64.95;99652.84;12251621;19;19922;-85
2023/12/13 15:07:00;;;;;;;;;;;10.30;64.60;;;8.89;65.28;99690.34;12252752;19;19919;-85
2023/12/13 15:11:05;;;;;;;;;;;10.30;64.70;;;8.86;65.13;99694.81;12246920;19;19915;-85
2023/12/13 15:15:07;;;;;;;;;;;10.20;64.60;;;8.66;65.16;99660.56;12250666;19;19926;-85
2023/12/13 15:19:10;;;;;;;;;;;10.20;64.60;;;8.76;65.17;99680.69;12248436;19;19922;-85
2023/12/13 15:23:11;;;;;;;;;;;10.20;64.70;;;8.67;65.31;99665.69;12245717;19;19993;-85
2023/12/13 15:27:14;;;;;;;;;;;10.20;64.80;;;8.88;65.11;99699.06;12249368;19;19919;-85
2023/12/13 15:31:15;;;;;;;;;;;10.20;64.90;;;8.88;65.23;99707.69;12248247;19;19946;-85
2023/12/13 15:35:17;;;;;;;;;;;10.20;64.80;;;8.89;65.20;99709.38;12248558;19;20026;-85
2023/12/13 15:39:20;;;;;;;;;;;10.20;64.80;;;8.91;65.11;99717.94;12249428;19;19922;-85
2023/12/13 15:43:21;;;;;;;;;;;10.20;64.80;;;8.85;65.20;99703.53;12248318;19;19947;-85
2023/12/13 15:47:23;;;;;;;;;;;10.30;64.80;;;8.85;65.10;99708.72;12239863;19;20263;-85
2023/12/13 15:51:24;;;;;;;;;;;10.30;64.70;;;8.81;65.01;99704.66;12242539;19;19922;-85
2023/12/13 15:55:26;;;;;;;;;;;10.30;64.60;;;8.72;65.15;99689.66;12243592;19;20277;-85
2023/12/13 15:59:28;;;;;;;;;;;10.30;64.70;;;8.83;65.20;99717.56;12244711;19;19933;-85
2023/12/13 16:03:35;;;;;;;;;;;10.20;64.70;;;8.81;65.30;99719.47;12244114;19;19971;-85
2023/12/13 16:07:38;;;;;;;;;;;10.20;64.80;;;8.58;65.14;99682.69;12244814;19;19918;-85
2023/12/13 16:11:40;;;;;;;;;;;10.20;65.70;;;8.78;65.28;99725.69;12237530;19;19947;-85
2023/12/13 16:15:41;;;;;;;;;;;10.20;65.00;;;8.69;65.30;99722.84;12241158;19;20285;-85
2023/12/13 16:19:43;;;;;;;;;;;10.10;64.90;;;8.79;65.08;99740.38;12241418;19;19919;-85
2023/12/13 16:23:44;;;;;;;;;;;10.10;65.00;;;8.55;65.24;99697.69;12242780;19;19914;-85
2023/12/13 16:27:45;;;;;;;;;;;10.10;65.00;;;8.54;65.28;99701.22;12244264;19;19936;-86
2023/12/13 16:31:47;;;;;;;;;;;10.10;64.90;;;8.75;65.14;99741.50;12239926;19;19919;-85
2023/12/13 16:35:49;;;;;;;;;;;10.10;64.90;;;8.71;65.25;99745.22;12242083;19;20018;-85
2023/12/13 16:39:50;;;;;;;;;;;10.10;65.00;;;8.67;65.33;99742.91;12240827;19;19917;-85
2023/12/13 16:43:52;;;;;;;;;;;10.10;65.00;;;8.73;65.23;99758.16;12239341;19;20338;-85
2023/12/13 16:47:53;;;;;;;;;;;10.10;65.10;;;8.62;65.32;99748.41;12241104;19;20337;-85
2023/12/13 16:51:55;;;;;;;;;;;10.10;64.90;;;8.59;65.22;99757.25;12238473;19;20679;-85
2023/12/13 16:55:58;;;;;;;;;;;10.10;65.10;;;8.77;65.43;99791.69;12245761;19;19918;-85
2023/12/13 17:00:00;;;;;;;;;;;10.10;65.10;;;8.76;65.30;99790.03;12239881;19;20333;-85
2023/12/13 17:04:02;;;;;;;;;;;10.10;65.10;;;8.77;65.35;99783.03;12245797;19;19922;-85
2023/12/13 17:08:04;;;;;;;;;;;10.10;65.20;;;8.73;65.13;99779.81;12243850;19;19919;-85
2023/12/13 17:12:05;;;;;;;;;;;10.10;65.10;;;8.80;65.34;99796.72;12242152;19;19915;-85
2023/12/13 17:16:08;;;;;;;;;;;10.10;65.10;;;8.77;65.29;99794.28;12242645;19;19911;-85
2023/12/13 17:20:10;;;;;;;;;;;10.10;65.10;;;8.73;65.26;99786.78;12242340;19;19911;-85
2023/12/13 17:24:12;;;;;;;;;;;10.20;65.20;;;8.83;65.20;99806.94;12248613;19;19948;-85
2023/12/13 17:28:13;;;;;;;;;;;10.20;65.10;;;8.82;65.29;99805.25;12258547;19;19919;-85
2023/12/13 17:32:15;;;;;;;;;;;10.40;65.20;;;8.85;65.16;99799.84;12251500;19;19914;-85
2023/12/13 17:36:16;;;;;;;;;;;10.20;65.80;;;8.59;65.31;99756.44;12258361;19;19915;-85
2023/12/13 17:40:18;;;;;;;;;;;10.30;65.10;;;8.74;65.29;99786.69;12250831;19;19940;-85
2023/12/13 17:44:19;;;;;;;;;;;10.20;65.30;;;8.68;65.16;99787.06;12255412;19;19936;-85
2023/12/13 17:48:21;;;;;;;;;;;10.20;65.30;;;8.49;65.16;99765.72;12252812;19;19923;-85
2023/12/13 17:52:22;;;;;;;;;;;10.10;65.40;;;8.72;65.20;99809.38;12251640;19;20662;-85
2023/12/13 17:56:24;;;;;;;;;;;10.10;65.40;;;8.68;65.28;99804.47;12255945;19;19923;-85
2023/12/13 18:00:28;;;;;;;;;;;10.10;65.30;;;8.71;65.32;99809.47;12254264;19;19975;-85
2023/12/13 18:04:33;;;;;;;;;;;10.10;65.30;;;8.69;65.38;99825.16;12253410;19;20361;-85
2023/12/13 18:08:36;;;;;;;;;;;10.10;65.40;;;8.72;65.25;99835.41;12254637;19;19919;-85
2023/12/13 18:12:38;;;;;;;;;;;10.10;65.40;;;8.71;65.31;99836.31;12250859;19;20322;-85
2023/12/13 18:16:39;;;;;;;;;;;10.10;65.30;;;8.71;65.29;99846.72;12255636;19;19919;-85
2023/12/13 18:20:41;;;;;;;;;;;10.20;65.20;;;8.57;65.16;99825.94;12251565;19;19922;-85
2023/12/13 18:24:43;;;;;;;;;;;10.00;65.10;;;8.67;65.16;99858.28;12252939;19;19926;-85
2023/12/13 18:28:44;;;;;;;;;;;10.00;65.20;;;8.54;65.29;99845.19;12252154;19;19922;-85
2023/12/13 18:32:45;;;;;;;;;;;10.00;65.90;;;8.62;65.16;99861.16;12249465;19;20273;-85
2023/12/13 18:36:47;;;;;;;;;;;10.00;65.30;;;8.59;65.50;99860.50;12253236;19;19919;-85
2023/12/13 18:40:48;;;;;;;;;;;10.00;65.40;;;8.46;65.29;99846.56;12250474;19;19919;-85
2023/12/13 18:44:51;;;;;;;;;;;10.00;65.40;;;8.64;65.37;99876.66;12251419;19;19936;-85